sensor_id;sensor_type;location;lat;lon;timestamp;temperature;humidity
22383;DHT22;11359;45.802;13.530;2023-02-15T00:00:13;15.90;34.60
22383;DHT22;11359;45.802;13.530;2023-02-15T00:02:40;15.90;34.70
22383;DHT22;11359;45.802;13.530;2023-02-15T00:05:06;15.90;34.80
22383;DHT22;11359;45.802;13.530;2023-02-15T00:07:32;15.80;34.80
22383;DHT22;11359;45.802;13.530;2023-02-15T00:09:58;15.90;34.90
22383;DHT22;11359;45.802;13.530;2023-02-15T00:12:23;15.80;34.80
22383;DHT22;11359;45.802;13.530;2023-02-15T00:14:49;15.80;34.90
22383;DHT22;11359;45.802;13.530;2023-02-15T00:17:14;15.70;34.80
22383;DHT22;11359;45.802;13.530;2023-02-15T00:19:40;15.70;34.90
22383;DHT22;11359;45.802;13.530;2023-02-15T00:22:06;15.70;34.90
22383;DHT22;11359;45.802;13.530;2023-02-15T00:24:32;15.60;35.00
22383;DHT22;11359;45.802;13.530;2023-02-15T00:26:58;15.60;35.10
22383;DHT22;11359;45.802;13.530;2023-02-15T00:29:24;15.50;35.20
22383;DHT22;11359;45.802;13.530;2023-02-15T00:31:50;15.50;35.20
22383;DHT22;11359;45.802;13.530;2023-02-15T00:34:22;15.50;35.20
22383;DHT22;11359;45.802;13.530;2023-02-15T00:36:48;15.40;35.10
22383;DHT22;11359;45.802;13.530;2023-02-15T00:39:15;15.40;35.20
22383;DHT22;11359;45.802;13.530;2023-02-15T00:41:41;15.30;35.80
22383;DHT22;11359;45.802;13.530;2023-02-15T00:44:07;15.30;35.30
22383;DHT22;11359;45.802;13.530;2023-02-15T00:46:33;15.20;35.30
22383;DHT22;11359;45.802;13.530;2023-02-15T00:48:59;15.20;35.40
22383;DHT22;11359;45.802;13.530;2023-02-15T00:51:25;15.10;35.40
22383;DHT22;11359;45.802;13.530;2023-02-15T00:53:51;15.00;35.50
22383;DHT22;11359;45.802;13.530;2023-02-15T00:56:17;15.00;35.60
22383;DHT22;11359;45.802;13.530;2023-02-15T00:58:43;15.00;35.60
22383;DHT22;11359;45.802;13.530;2023-02-15T01:01:20;14.90;35.70
22383;DHT22;11359;45.802;13.530;2023-02-15T01:03:46;14.80;35.60
22383;DHT22;11359;45.802;13.530;2023-02-15T01:06:14;14.80;35.80
22383;DHT22;11359;45.802;13.530;2023-02-15T01:08:41;14.80;36.60
22383;DHT22;11359;45.802;13.530;2023-02-15T01:11:11;14.80;35.90
22383;DHT22;11359;45.802;13.530;2023-02-15T01:13:36;14.70;36.00
22383;DHT22;11359;45.802;13.530;2023-02-15T01:16:03;14.70;36.00
22383;DHT22;11359;45.802;13.530;2023-02-15T01:18:30;14.70;36.00
22383;DHT22;11359;45.802;13.530;2023-02-15T01:20:56;14.70;36.10
22383;DHT22;11359;45.802;13.530;2023-02-15T01:23:21;14.60;36.10
22383;DHT22;11359;45.802;13.530;2023-02-15T01:25:47;14.60;36.10
22383;DHT22;11359;45.802;13.530;2023-02-15T01:28:13;14.60;36.20
22383;DHT22;11359;45.802;13.530;2023-02-15T01:30:39;14.60;36.30
22383;DHT22;11359;45.802;13.530;2023-02-15T01:33:05;14.50;36.30
22383;DHT22;11359;45.802;13.530;2023-02-15T01:35:36;14.50;36.30
22383;DHT22;11359;45.802;13.530;2023-02-15T01:38:02;14.50;36.30
22383;DHT22;11359;45.802;13.530;2023-02-15T01:40:27;14.50;36.40
22383;DHT22;11359;45.802;13.530;2023-02-15T01:42:54;14.50;36.40
22383;DHT22;11359;45.802;13.530;2023-02-15T01:45:31;14.50;36.40
22383;DHT22;11359;45.802;13.530;2023-02-15T01:48:04;14.50;36.50
22383;DHT22;11359;45.802;13.530;2023-02-15T01:50:40;14.40;36.40
22383;DHT22;11359;45.802;13.530;2023-02-15T01:53:17;14.40;36.50
22383;DHT22;11359;45.802;13.530;2023-02-15T01:55:53;14.40;36.50
22383;DHT22;11359;45.802;13.530;2023-02-15T01:58:20;14.40;36.50
22383;DHT22;11359;45.802;13.530;2023-02-15T02:00:46;14.30;36.50
22383;DHT22;11359;45.802;13.530;2023-02-15T02:03:13;14.30;36.60
22383;DHT22;11359;45.802;13.530;2023-02-15T02:05:39;14.30;36.60
22383;DHT22;11359;45.802;13.530;2023-02-15T02:08:06;14.30;36.60
22383;DHT22;11359;45.802;13.530;2023-02-15T02:10:32;14.20;36.60
22383;DHT22;11359;45.802;13.530;2023-02-15T02:13:01;14.20;36.70
22383;DHT22;11359;45.802;13.530;2023-02-15T02:18:22;14.10;36.70
22383;DHT22;11359;45.802;13.530;2023-02-15T02:30:06;14.00;36.80
22383;DHT22;11359;45.802;13.530;2023-02-15T02:43:31;13.80;37.10
22383;DHT22;11359;45.802;13.530;2023-02-15T02:46:50;13.70;37.10
22383;DHT22;11359;45.802;13.530;2023-02-15T02:48:49;13.70;37.10
22383;DHT22;11359;45.802;13.530;2023-02-15T02:51:15;13.70;37.20
22383;DHT22;11359;45.802;13.530;2023-02-15T02:53:56;13.70;37.30
22383;DHT22;11359;45.802;13.530;2023-02-15T02:56:53;13.60;37.30
22383;DHT22;11359;45.802;13.530;2023-02-15T02:59:24;13.60;37.30
22383;DHT22;11359;45.802;13.530;2023-02-15T03:04:35;13.50;37.30
22383;DHT22;11359;45.802;13.530;2023-02-15T03:07:05;13.50;37.40
22383;DHT22;11359;45.802;13.530;2023-02-15T03:09:39;13.50;37.50
22383;DHT22;11359;45.802;13.530;2023-02-15T03:12:14;13.50;37.60
22383;DHT22;11359;45.802;13.530;2023-02-15T03:14:41;13.40;37.60
22383;DHT22;11359;45.802;13.530;2023-02-15T03:17:09;13.40;37.70
22383;DHT22;11359;45.802;13.530;2023-02-15T03:19:38;13.40;37.70
22383;DHT22;11359;45.802;13.530;2023-02-15T03:22:17;13.40;37.70
22383;DHT22;11359;45.802;13.530;2023-02-15T03:27:38;13.40;37.80
22383;DHT22;11359;45.802;13.530;2023-02-15T03:30:06;13.40;37.80
22383;DHT22;11359;45.802;13.530;2023-02-15T03:32:34;13.40;37.80
22383;DHT22;11359;45.802;13.530;2023-02-15T03:35:01;13.30;37.80
22383;DHT22;11359;45.802;13.530;2023-02-15T03:37:37;13.30;37.80
22383;DHT22;11359;45.802;13.530;2023-02-15T03:40:18;13.30;37.90
22383;DHT22;11359;45.802;13.530;2023-02-15T03:43:21;13.30;37.90
22383;DHT22;11359;45.802;13.530;2023-02-15T03:45:51;13.30;38.00
22383;DHT22;11359;45.802;13.530;2023-02-15T03:48:43;13.30;38.00
22383;DHT22;11359;45.802;13.530;2023-02-15T03:51:16;13.20;38.00
22383;DHT22;11359;45.802;13.530;2023-02-15T03:56:29;13.20;38.00
22383;DHT22;11359;45.802;13.530;2023-02-15T03:58:54;13.20;38.10
22383;DHT22;11359;45.802;13.530;2023-02-15T04:04:45;13.10;38.20
22383;DHT22;11359;45.802;13.530;2023-02-15T04:07:11;13.10;38.20
22383;DHT22;11359;45.802;13.530;2023-02-15T04:09:37;13.10;38.20
22383;DHT22;11359;45.802;13.530;2023-02-15T04:12:21;13.00;38.30
22383;DHT22;11359;45.802;13.530;2023-02-15T04:14:47;13.00;38.30
22383;DHT22;11359;45.802;13.530;2023-02-15T04:17:31;13.00;38.30
22383;DHT22;11359;45.802;13.530;2023-02-15T04:19:57;12.90;38.30
22383;DHT22;11359;45.802;13.530;2023-02-15T04:22:41;12.90;38.40
22383;DHT22;11359;45.802;13.530;2023-02-15T04:25:25;12.90;38.40
22383;DHT22;11359;45.802;13.530;2023-02-15T04:27:53;12.80;38.50
22383;DHT22;11359;45.802;13.530;2023-02-15T04:30:22;12.80;38.50
22383;DHT22;11359;45.802;13.530;2023-02-15T04:32:49;12.80;38.50
22383;DHT22;11359;45.802;13.530;2023-02-15T04:35:15;12.70;38.50
22383;DHT22;11359;45.802;13.530;2023-02-15T04:37:43;12.70;38.60
22383;DHT22;11359;45.802;13.530;2023-02-15T04:40:11;12.70;38.60
22383;DHT22;11359;45.802;13.530;2023-02-15T04:42:37;12.70;38.70
22383;DHT22;11359;45.802;13.530;2023-02-15T04:45:03;12.70;38.80
22383;DHT22;11359;45.802;13.530;2023-02-15T04:47:28;12.70;38.80
22383;DHT22;11359;45.802;13.530;2023-02-15T04:49:54;12.70;38.80
22383;DHT22;11359;45.802;13.530;2023-02-15T04:52:20;12.70;38.80
22383;DHT22;11359;45.802;13.530;2023-02-15T04:54:47;12.70;38.80
22383;DHT22;11359;45.802;13.530;2023-02-15T04:57:13;12.60;38.70
22383;DHT22;11359;45.802;13.530;2023-02-15T04:59:39;12.60;38.80
22383;DHT22;11359;45.802;13.530;2023-02-15T05:02:05;12.60;38.80
22383;DHT22;11359;45.802;13.530;2023-02-15T05:04:31;12.60;38.90
22383;DHT22;11359;45.802;13.530;2023-02-15T05:06:56;12.60;38.90
22383;DHT22;11359;45.802;13.530;2023-02-15T05:09:22;12.60;38.90
22383;DHT22;11359;45.802;13.530;2023-02-15T05:11:48;12.60;38.90
22383;DHT22;11359;45.802;13.530;2023-02-15T05:14:13;12.50;39.60
22383;DHT22;11359;45.802;13.530;2023-02-15T05:16:39;12.50;39.00
22383;DHT22;11359;45.802;13.530;2023-02-15T05:19:05;12.50;39.00
22383;DHT22;11359;45.802;13.530;2023-02-15T05:21:31;12.50;39.00
22383;DHT22;11359;45.802;13.530;2023-02-15T05:23:57;12.50;39.10
22383;DHT22;11359;45.802;13.530;2023-02-15T05:26:24;12.50;39.10
22383;DHT22;11359;45.802;13.530;2023-02-15T05:29:09;12.50;39.10
22383;DHT22;11359;45.802;13.530;2023-02-15T05:31:35;12.50;39.10
22383;DHT22;11359;45.802;13.530;2023-02-15T05:34:01;12.50;39.10
22383;DHT22;11359;45.802;13.530;2023-02-15T05:36:27;12.60;39.30
22383;DHT22;11359;45.802;13.530;2023-02-15T05:38:54;12.60;39.20
22383;DHT22;11359;45.802;13.530;2023-02-15T05:41:20;12.60;39.20
22383;DHT22;11359;45.802;13.530;2023-02-15T05:43:46;12.60;39.20
22383;DHT22;11359;45.802;13.530;2023-02-15T05:46:12;12.60;39.20
22383;DHT22;11359;45.802;13.530;2023-02-15T05:48:38;12.60;39.30
22383;DHT22;11359;45.802;13.530;2023-02-15T05:51:07;12.70;39.30
22383;DHT22;11359;45.802;13.530;2023-02-15T05:53:35;12.70;39.30
22383;DHT22;11359;45.802;13.530;2023-02-15T05:56:02;12.80;39.40
22383;DHT22;11359;45.802;13.530;2023-02-15T05:58:30;12.80;39.30
22383;DHT22;11359;45.802;13.530;2023-02-15T06:00:57;12.80;39.30
22383;DHT22;11359;45.802;13.530;2023-02-15T06:03:23;12.90;39.30
22383;DHT22;11359;45.802;13.530;2023-02-15T06:05:51;12.90;39.30
22383;DHT22;11359;45.802;13.530;2023-02-15T06:08:17;13.00;39.30
22383;DHT22;11359;45.802;13.530;2023-02-15T06:10:45;13.00;39.30
22383;DHT22;11359;45.802;13.530;2023-02-15T06:13:11;13.10;39.30
22383;DHT22;11359;45.802;13.530;2023-02-15T06:15:37;13.10;39.20
22383;DHT22;11359;45.802;13.530;2023-02-15T06:18:02;13.20;39.20
22383;DHT22;11359;45.802;13.530;2023-02-15T06:20:28;13.20;39.10
22383;DHT22;11359;45.802;13.530;2023-02-15T06:22:54;13.30;39.10
22383;DHT22;11359;45.802;13.530;2023-02-15T06:25:19;13.30;39.10
22383;DHT22;11359;45.802;13.530;2023-02-15T06:27:45;13.40;39.10
22383;DHT22;11359;45.802;13.530;2023-02-15T06:30:12;13.50;39.10
22383;DHT22;11359;45.802;13.530;2023-02-15T06:32:38;13.50;39.10
22383;DHT22;11359;45.802;13.530;2023-02-15T06:35:06;13.60;39.00
22383;DHT22;11359;45.802;13.530;2023-02-15T06:37:32;13.60;39.00
22383;DHT22;11359;45.802;13.530;2023-02-15T06:39:57;13.70;38.90
22383;DHT22;11359;45.802;13.530;2023-02-15T06:42:24;13.70;38.80
22383;DHT22;11359;45.802;13.530;2023-02-15T06:44:50;13.90;38.90
22383;DHT22;11359;45.802;13.530;2023-02-15T06:47:15;13.90;38.80
22383;DHT22;11359;45.802;13.530;2023-02-15T06:49:41;13.90;38.80
22383;DHT22;11359;45.802;13.530;2023-02-15T06:52:07;14.00;38.70
22383;DHT22;11359;45.802;13.530;2023-02-15T06:54:32;14.10;38.70
22383;DHT22;11359;45.802;13.530;2023-02-15T06:56:58;14.10;38.60
22383;DHT22;11359;45.802;13.530;2023-02-15T06:59:25;14.20;38.60
22383;DHT22;11359;45.802;13.530;2023-02-15T07:01:51;14.20;38.50
22383;DHT22;11359;45.802;13.530;2023-02-15T07:04:17;14.30;38.40
22383;DHT22;11359;45.802;13.530;2023-02-15T07:06:42;14.30;38.40
22383;DHT22;11359;45.802;13.530;2023-02-15T07:09:08;14.40;38.40
22383;DHT22;11359;45.802;13.530;2023-02-15T07:11:34;14.40;38.30
22383;DHT22;11359;45.802;13.530;2023-02-15T07:14:19;14.50;38.30
22383;DHT22;11359;45.802;13.530;2023-02-15T07:16:44;14.50;38.20
22383;DHT22;11359;45.802;13.530;2023-02-15T07:19:10;14.60;38.20
22383;DHT22;11359;45.802;13.530;2023-02-15T07:21:36;14.60;38.20
22383;DHT22;11359;45.802;13.530;2023-02-15T07:24:03;14.70;38.20
22383;DHT22;11359;45.802;13.530;2023-02-15T07:26:30;14.70;38.10
22383;DHT22;11359;45.802;13.530;2023-02-15T07:28:57;14.70;38.10
22383;DHT22;11359;45.802;13.530;2023-02-15T07:31:22;14.70;38.00
22383;DHT22;11359;45.802;13.530;2023-02-15T07:33:48;14.80;38.00
22383;DHT22;11359;45.802;13.530;2023-02-15T07:36:14;14.80;38.00
22383;DHT22;11359;45.802;13.530;2023-02-15T07:38:41;14.80;38.00
22383;DHT22;11359;45.802;13.530;2023-02-15T07:41:11;14.80;38.00
22383;DHT22;11359;45.802;13.530;2023-02-15T07:43:40;14.90;38.00
22383;DHT22;11359;45.802;13.530;2023-02-15T07:46:16;14.90;38.00
22383;DHT22;11359;45.802;13.530;2023-02-15T07:48:42;15.00;38.00
22383;DHT22;11359;45.802;13.530;2023-02-15T07:51:10;15.00;38.00
22383;DHT22;11359;45.802;13.530;2023-02-15T07:53:37;15.00;37.90
22383;DHT22;11359;45.802;13.530;2023-02-15T07:56:10;15.10;37.90
22383;DHT22;11359;45.802;13.530;2023-02-15T07:58:37;15.10;37.80
22383;DHT22;11359;45.802;13.530;2023-02-15T08:01:26;15.10;37.80
22383;DHT22;11359;45.802;13.530;2023-02-15T08:03:53;15.10;37.80
22383;DHT22;11359;45.802;13.530;2023-02-15T08:06:21;15.10;37.80
22383;DHT22;11359;45.802;13.530;2023-02-15T08:08:46;15.10;37.80
22383;DHT22;11359;45.802;13.530;2023-02-15T08:11:20;15.20;37.80
22383;DHT22;11359;45.802;13.530;2023-02-15T08:14:04;15.20;37.80
22383;DHT22;11359;45.802;13.530;2023-02-15T08:16:42;15.20;37.80
22383;DHT22;11359;45.802;13.530;2023-02-15T08:21:43;15.20;37.90
22383;DHT22;11359;45.802;13.530;2023-02-15T08:24:10;15.30;37.90
22383;DHT22;11359;45.802;13.530;2023-02-15T08:26:38;15.30;37.90
22383;DHT22;11359;45.802;13.530;2023-02-15T08:29:08;15.30;37.90
22383;DHT22;11359;45.802;13.530;2023-02-15T08:31:35;15.30;37.80
22383;DHT22;11359;45.802;13.530;2023-02-15T08:34:03;15.40;37.80
22383;DHT22;11359;45.802;13.530;2023-02-15T08:36:31;15.40;37.80
22383;DHT22;11359;45.802;13.530;2023-02-15T08:38:58;15.40;37.80
22383;DHT22;11359;45.802;13.530;2023-02-15T08:41:26;15.40;37.80
22383;DHT22;11359;45.802;13.530;2023-02-15T08:44:00;15.40;37.70
22383;DHT22;11359;45.802;13.530;2023-02-15T08:46:28;15.40;37.70
22383;DHT22;11359;45.802;13.530;2023-02-15T08:48:54;15.40;37.70
22383;DHT22;11359;45.802;13.530;2023-02-15T08:51:31;15.50;37.80
22383;DHT22;11359;45.802;13.530;2023-02-15T08:53:59;15.50;37.80
22383;DHT22;11359;45.802;13.530;2023-02-15T08:56:31;15.50;37.80
22383;DHT22;11359;45.802;13.530;2023-02-15T08:58:57;15.60;37.80
22383;DHT22;11359;45.802;13.530;2023-02-15T09:01:26;15.60;37.80
22383;DHT22;11359;45.802;13.530;2023-02-15T09:03:59;15.60;37.80
22383;DHT22;11359;45.802;13.530;2023-02-15T09:06:26;15.60;37.80
22383;DHT22;11359;45.802;13.530;2023-02-15T09:08:52;15.70;37.80
22383;DHT22;11359;45.802;13.530;2023-02-15T09:11:21;15.70;37.80
22383;DHT22;11359;45.802;13.530;2023-02-15T09:13:52;15.70;37.80
22383;DHT22;11359;45.802;13.530;2023-02-15T09:16:19;15.80;37.90
22383;DHT22;11359;45.802;13.530;2023-02-15T09:18:45;15.80;37.90
22383;DHT22;11359;45.802;13.530;2023-02-15T09:21:18;15.80;37.80
22383;DHT22;11359;45.802;13.530;2023-02-15T09:23:46;15.80;37.80
22383;DHT22;11359;45.802;13.530;2023-02-15T09:26:14;15.90;37.80
22383;DHT22;11359;45.802;13.530;2023-02-15T09:28:40;15.90;37.80
22383;DHT22;11359;45.802;13.530;2023-02-15T09:31:16;15.90;37.80
22383;DHT22;11359;45.802;13.530;2023-02-15T09:33:43;15.90;37.80
22383;DHT22;11359;45.802;13.530;2023-02-15T09:38:48;16.00;37.80
22383;DHT22;11359;45.802;13.530;2023-02-15T09:46:52;16.00;37.80
22383;DHT22;11359;45.802;13.530;2023-02-15T09:55:12;16.10;37.90
22383;DHT22;11359;45.802;13.530;2023-02-15T09:57:50;16.10;37.90
22383;DHT22;11359;45.802;13.530;2023-02-15T10:08:40;16.10;37.90
22383;DHT22;11359;45.802;13.530;2023-02-15T10:24:26;16.10;38.10
22383;DHT22;11359;45.802;13.530;2023-02-15T10:26:58;16.10;38.30
22383;DHT22;11359;45.802;13.530;2023-02-15T10:29:38;16.00;38.40
22383;DHT22;11359;45.802;13.530;2023-02-15T10:32:26;16.00;38.60
22383;DHT22;11359;45.802;13.530;2023-02-15T10:44:38;15.90;39.30
22383;DHT22;11359;45.802;13.530;2023-02-15T10:52:59;15.80;39.70
22383;DHT22;11359;45.802;13.530;2023-02-15T11:01:30;15.80;40.00
22383;DHT22;11359;45.802;13.530;2023-02-15T11:06:52;15.70;40.10
22383;DHT22;11359;45.802;13.530;2023-02-15T11:09:21;15.70;40.20
22383;DHT22;11359;45.802;13.530;2023-02-15T11:11:53;15.70;40.30
22383;DHT22;11359;45.802;13.530;2023-02-15T11:16:59;15.70;40.40
22383;DHT22;11359;45.802;13.530;2023-02-15T11:19:35;15.80;40.50
22383;DHT22;11359;45.802;13.530;2023-02-15T11:22:04;15.80;40.50
22383;DHT22;11359;45.802;13.530;2023-02-15T11:24:34;15.80;40.60
22383;DHT22;11359;45.802;13.530;2023-02-15T11:27:24;15.80;40.70
22383;DHT22;11359;45.802;13.530;2023-02-15T11:29:58;15.80;40.80
22383;DHT22;11359;45.802;13.530;2023-02-15T11:32:43;15.80;40.70
22383;DHT22;11359;45.802;13.530;2023-02-15T11:40:24;15.90;41.00
22383;DHT22;11359;45.802;13.530;2023-02-15T11:42:53;15.90;41.00
22383;DHT22;11359;45.802;13.530;2023-02-15T11:45:31;16.00;41.00
22383;DHT22;11359;45.802;13.530;2023-02-15T11:48:00;16.00;41.10
22383;DHT22;11359;45.802;13.530;2023-02-15T11:50:32;16.10;41.10
22383;DHT22;11359;45.802;13.530;2023-02-15T11:53:11;16.10;41.20
22383;DHT22;11359;45.802;13.530;2023-02-15T11:55:38;16.10;41.20
22383;DHT22;11359;45.802;13.530;2023-02-15T12:00:52;16.30;41.40
22383;DHT22;11359;45.802;13.530;2023-02-15T12:03:24;16.30;41.30
22383;DHT22;11359;45.802;13.530;2023-02-15T12:06:01;16.30;41.40
22383;DHT22;11359;45.802;13.530;2023-02-15T12:08:39;16.40;41.40
22383;DHT22;11359;45.802;13.530;2023-02-15T12:11:19;16.40;41.30
22383;DHT22;11359;45.802;13.530;2023-02-15T12:13:58;16.50;41.40
22383;DHT22;11359;45.802;13.530;2023-02-15T12:16:26;16.50;41.30
22383;DHT22;11359;45.802;13.530;2023-02-15T12:18:56;16.60;41.30
22383;DHT22;11359;45.802;13.530;2023-02-15T12:21:29;16.60;41.30
22383;DHT22;11359;45.802;13.530;2023-02-15T12:26:57;16.70;41.20
22383;DHT22;11359;45.802;13.530;2023-02-15T12:29:27;16.80;41.10
22383;DHT22;11359;45.802;13.530;2023-02-15T12:31:54;16.80;41.00
22383;DHT22;11359;45.802;13.530;2023-02-15T12:34:30;16.90;40.90
22383;DHT22;11359;45.802;13.530;2023-02-15T12:37:01;16.90;40.80
22383;DHT22;11359;45.802;13.530;2023-02-15T12:39:31;16.90;40.70
22383;DHT22;11359;45.802;13.530;2023-02-15T12:41:59;17.00;40.70
22383;DHT22;11359;45.802;13.530;2023-02-15T12:44:28;17.00;40.70
22383;DHT22;11359;45.802;13.530;2023-02-15T12:49:37;17.10;40.60
22383;DHT22;11359;45.802;13.530;2023-02-15T12:54:43;17.20;40.60
22383;DHT22;11359;45.802;13.530;2023-02-15T12:57:31;17.20;40.50
22383;DHT22;11359;45.802;13.530;2023-02-15T13:00:02;17.30;40.60
22383;DHT22;11359;45.802;13.530;2023-02-15T13:05:18;17.40;40.40
22383;DHT22;11359;45.802;13.530;2023-02-15T13:07:50;17.50;40.40
22383;DHT22;11359;45.802;13.530;2023-02-15T13:10:28;17.50;40.30
22383;DHT22;11359;45.802;13.530;2023-02-15T13:12:55;17.60;40.90
22383;DHT22;11359;45.802;13.530;2023-02-15T13:17:58;17.70;40.20
22383;DHT22;11359;45.802;13.530;2023-02-15T13:20:25;17.80;40.20
22383;DHT22;11359;45.802;13.530;2023-02-15T13:23:01;17.80;40.00
22383;DHT22;11359;45.802;13.530;2023-02-15T13:25:31;17.90;40.00
22383;DHT22;11359;45.802;13.530;2023-02-15T13:28:03;17.90;40.00
22383;DHT22;11359;45.802;13.530;2023-02-15T13:30:36;17.90;40.00
22383;DHT22;11359;45.802;13.530;2023-02-15T13:33:17;18.00;40.00
22383;DHT22;11359;45.802;13.530;2023-02-15T13:35:54;18.00;40.00
22383;DHT22;11359;45.802;13.530;2023-02-15T13:38:52;18.10;40.00
22383;DHT22;11359;45.802;13.530;2023-02-15T13:41:34;18.20;40.00
22383;DHT22;11359;45.802;13.530;2023-02-15T13:44:24;18.20;40.00
22383;DHT22;11359;45.802;13.530;2023-02-15T13:47:06;18.20;39.90
22383;DHT22;11359;45.802;13.530;2023-02-15T13:50:10;18.30;39.90
22383;DHT22;11359;45.802;13.530;2023-02-15T13:55:58;18.40;40.00
22383;DHT22;11359;45.802;13.530;2023-02-15T13:58:41;18.40;40.00
22383;DHT22;11359;45.802;13.530;2023-02-15T14:01:19;18.40;39.90
22383;DHT22;11359;45.802;13.530;2023-02-15T14:15:42;18.70;40.00
22383;DHT22;11359;45.802;13.530;2023-02-15T14:18:27;18.70;40.00
22383;DHT22;11359;45.802;13.530;2023-02-15T14:21:19;18.70;39.90
22383;DHT22;11359;45.802;13.530;2023-02-15T14:24:30;18.80;39.90
22383;DHT22;11359;45.802;13.530;2023-02-15T14:29:57;18.90;39.80
22383;DHT22;11359;45.802;13.530;2023-02-15T14:32:35;18.90;39.70
22383;DHT22;11359;45.802;13.530;2023-02-15T14:35:14;18.90;39.70
22383;DHT22;11359;45.802;13.530;2023-02-15T14:49:22;19.20;39.50
22383;DHT22;11359;45.802;13.530;2023-02-15T15:04:40;19.50;39.90
22383;DHT22;11359;45.802;13.530;2023-02-15T15:09:41;19.60;40.10
22383;DHT22;11359;45.802;13.530;2023-02-15T15:14:44;19.80;40.20
22383;DHT22;11359;45.802;13.530;2023-02-15T15:17:14;19.90;40.20
22383;DHT22;11359;45.802;13.530;2023-02-15T15:20:11;20.00;40.00
22383;DHT22;11359;45.802;13.530;2023-02-15T15:22:42;20.00;39.80
22383;DHT22;11359;45.802;13.530;2023-02-15T15:25:12;20.00;39.60
22383;DHT22;11359;45.802;13.530;2023-02-15T15:27:57;20.10;39.40
22383;DHT22;11359;45.802;13.530;2023-02-15T15:35:36;20.10;39.00
22383;DHT22;11359;45.802;13.530;2023-02-15T15:46:39;20.00;38.60
22383;DHT22;11359;45.802;13.530;2023-02-15T15:49:17;20.00;38.60
22383;DHT22;11359;45.802;13.530;2023-02-15T15:51:44;19.90;38.50
22383;DHT22;11359;45.802;13.530;2023-02-15T15:54:23;19.90;38.50
22383;DHT22;11359;45.802;13.530;2023-02-15T15:57:04;19.90;38.50
22383;DHT22;11359;45.802;13.530;2023-02-15T15:59:34;19.90;38.60
22383;DHT22;11359;45.802;13.530;2023-02-15T16:02:14;19.90;38.60
22383;DHT22;11359;45.802;13.530;2023-02-15T16:04:44;19.80;38.50
22383;DHT22;11359;45.802;13.530;2023-02-15T16:07:28;19.80;38.50
22383;DHT22;11359;45.802;13.530;2023-02-15T16:10:06;19.80;38.50
22383;DHT22;11359;45.802;13.530;2023-02-15T16:12:37;19.80;38.50
22383;DHT22;11359;45.802;13.530;2023-02-15T16:15:24;19.80;38.50
22383;DHT22;11359;45.802;13.530;2023-02-15T16:17:53;19.70;38.50
22383;DHT22;11359;45.802;13.530;2023-02-15T16:28:21;19.70;38.50
22383;DHT22;11359;45.802;13.530;2023-02-15T16:30:58;19.70;38.50
22383;DHT22;11359;45.802;13.530;2023-02-15T16:33:37;19.70;38.40
22383;DHT22;11359;45.802;13.530;2023-02-15T16:36:04;19.70;38.50
22383;DHT22;11359;45.802;13.530;2023-02-15T16:41:16;19.60;38.40
22383;DHT22;11359;45.802;13.530;2023-02-15T16:43:46;19.60;38.40
22383;DHT22;11359;45.802;13.530;2023-02-15T16:46:30;19.50;39.00
22383;DHT22;11359;45.802;13.530;2023-02-15T16:49:00;19.50;38.40
22383;DHT22;11359;45.802;13.530;2023-02-15T16:51:30;19.50;38.40
22383;DHT22;11359;45.802;13.530;2023-02-15T16:54:03;19.50;38.40
22383;DHT22;11359;45.802;13.530;2023-02-15T16:56:31;19.50;38.40
22383;DHT22;11359;45.802;13.530;2023-02-15T16:58:59;19.50;38.40
22383;DHT22;11359;45.802;13.530;2023-02-15T17:01:31;19.50;38.40
22383;DHT22;11359;45.802;13.530;2023-02-15T17:07:04;19.40;38.40
22383;DHT22;11359;45.802;13.530;2023-02-15T17:09:32;19.40;38.40
22383;DHT22;11359;45.802;13.530;2023-02-15T17:11:59;19.40;38.40
22383;DHT22;11359;45.802;13.530;2023-02-15T17:14:29;19.40;38.40
22383;DHT22;11359;45.802;13.530;2023-02-15T17:17:12;19.40;38.40
22383;DHT22;11359;45.802;13.530;2023-02-15T17:20:11;19.40;38.40
22383;DHT22;11359;45.802;13.530;2023-02-15T17:22:39;19.40;38.40
22383;DHT22;11359;45.802;13.530;2023-02-15T17:25:05;19.40;38.40
22383;DHT22;11359;45.802;13.530;2023-02-15T17:27:31;19.40;38.40
22383;DHT22;11359;45.802;13.530;2023-02-15T17:30:05;19.40;38.40
22383;DHT22;11359;45.802;13.530;2023-02-15T17:32:38;19.30;38.30
22383;DHT22;11359;45.802;13.530;2023-02-15T17:35:25;19.30;38.30
22383;DHT22;11359;45.802;13.530;2023-02-15T17:40:33;19.30;38.30
22383;DHT22;11359;45.802;13.530;2023-02-15T17:42:59;19.30;38.30
22383;DHT22;11359;45.802;13.530;2023-02-15T17:45:31;19.30;38.30
22383;DHT22;11359;45.802;13.530;2023-02-15T17:47:58;19.30;38.30
22383;DHT22;11359;45.802;13.530;2023-02-15T17:50:27;19.20;38.40
22383;DHT22;11359;45.802;13.530;2023-02-15T17:52:55;19.20;39.00
22383;DHT22;11359;45.802;13.530;2023-02-15T17:55:22;19.20;38.30
22383;DHT22;11359;45.802;13.530;2023-02-15T17:58:04;19.20;38.30
22383;DHT22;11359;45.802;13.530;2023-02-15T18:00:33;19.20;38.20
22383;DHT22;11359;45.802;13.530;2023-02-15T18:03:18;19.20;38.20
22383;DHT22;11359;45.802;13.530;2023-02-15T18:06:06;19.20;38.20
22383;DHT22;11359;45.802;13.530;2023-02-15T18:08:51;19.20;38.10
22383;DHT22;11359;45.802;13.530;2023-02-15T18:11:36;19.10;38.00
22383;DHT22;11359;45.802;13.530;2023-02-15T18:14:03;19.10;38.00
22383;DHT22;11359;45.802;13.530;2023-02-15T18:16:36;19.10;37.90
22383;DHT22;11359;45.802;13.530;2023-02-15T18:19:04;19.10;37.90
22383;DHT22;11359;45.802;13.530;2023-02-15T18:21:34;19.10;37.90
22383;DHT22;11359;45.802;13.530;2023-02-15T18:24:00;19.10;37.80
22383;DHT22;11359;45.802;13.530;2023-02-15T18:26:26;19.10;37.80
22383;DHT22;11359;45.802;13.530;2023-02-15T18:28:53;19.10;37.80
22383;DHT22;11359;45.802;13.530;2023-02-15T18:31:19;19.00;37.80
22383;DHT22;11359;45.802;13.530;2023-02-15T18:33:57;19.00;37.80
22383;DHT22;11359;45.802;13.530;2023-02-15T18:36:31;19.00;37.80
22383;DHT22;11359;45.802;13.530;2023-02-15T18:39:01;19.00;37.80
22383;DHT22;11359;45.802;13.530;2023-02-15T18:41:28;19.00;37.70
22383;DHT22;11359;45.802;13.530;2023-02-15T18:43:54;19.00;37.70
22383;DHT22;11359;45.802;13.530;2023-02-15T18:46:20;19.00;37.60
22383;DHT22;11359;45.802;13.530;2023-02-15T18:48:46;19.00;37.60
22383;DHT22;11359;45.802;13.530;2023-02-15T18:51:19;19.00;37.50
22383;DHT22;11359;45.802;13.530;2023-02-15T18:53:49;18.90;37.40
22383;DHT22;11359;45.802;13.530;2023-02-15T18:56:16;18.90;37.40